createdAt,value
2024-02-15T00:08:45.676Z,9.23
2024-02-15T00:13:47.514Z,8.37
2024-02-15T00:18:50.853Z,9.43
2024-02-15T00:23:55.303Z,9.83
2024-02-15T00:28:57.200Z,10.32
2024-02-15T00:34:00.736Z,10.23
2024-02-15T00:39:05.106Z,10.68
2024-02-15T00:44:07.051Z,10.35
2024-02-15T00:49:09.334Z,10.02
2024-02-15T00:54:11.524Z,11.90
2024-02-15T00:59:13.428Z,10.00
2024-02-15T01:04:15.318Z,11.68
2024-02-15T01:09:17.305Z,11.98
2024-02-15T01:14:19.247Z,11.70
2024-02-15T01:19:21.059Z,12.77
2024-02-15T01:24:22.951Z,12.60
2024-02-15T01:29:26.692Z,12.10
2024-02-15T01:34:29.058Z,12.10
2024-02-15T01:39:30.942Z,12.25
2024-02-15T01:44:33.082Z,11.57
2024-02-15T01:49:35.128Z,10.90
2024-02-15T01:54:39.982Z,11.10
2024-02-15T01:59:42.338Z,11.68
2024-02-15T02:04:45.378Z,11.45
2024-02-15T02:09:48.117Z,10.43
2024-02-15T02:14:50.720Z,11.63
2024-02-15T02:19:52.660Z,11.13
2024-02-15T02:25:09.536Z,11.00
2024-02-15T02:30:20.107Z,11.70
2024-02-15T02:35:22.169Z,10.48
2024-02-15T02:40:24.191Z,10.90
2024-02-15T02:45:26.321Z,10.65
2024-02-15T02:50:28.272Z,9.70
2024-02-15T02:55:30.547Z,9.73
2024-02-15T03:00:33.129Z,9.25
2024-02-15T03:05:34.992Z,9.35
2024-02-15T03:10:36.854Z,9.55
2024-02-15T03:15:38.899Z,9.50
2024-02-15T03:20:40.776Z,8.48
2024-02-15T03:25:42.635Z,8.90
2024-02-15T03:30:44.471Z,8.15
2024-02-15T03:35:46.321Z,8.18
2024-02-15T03:40:48.155Z,9.38
2024-02-15T03:45:50.408Z,10.20
2024-02-15T03:50:52.252Z,10.77
2024-02-15T03:55:54.689Z,9.50
2024-02-15T04:00:58.123Z,9.10
2024-02-15T04:06:01.468Z,9.50
2024-02-15T04:11:03.463Z,9.50
2024-02-15T04:16:06.094Z,9.50
2024-02-15T04:21:08.667Z,8.98
2024-02-15T04:26:10.545Z,8.98
2024-02-15T04:31:13.627Z,9.80
2024-02-15T04:36:16.720Z,11.02
2024-02-15T04:41:24.062Z,10.98
2024-02-15T04:46:25.910Z,9.32
2024-02-15T04:51:28.790Z,11.55
2024-02-15T04:56:32.979Z,12.40
2024-02-15T05:01:34.741Z,13.70
2024-02-15T05:06:37.692Z,12.95
2024-02-15T05:11:42.691Z,11.10
2024-02-15T05:16:44.793Z,10.20
2024-02-15T05:21:47.628Z,9.27
2024-02-15T05:26:52.310Z,9.68
2024-02-15T05:31:55.656Z,9.27
2024-02-15T05:36:57.386Z,9.10
2024-02-15T05:42:02.086Z,9.00
2024-02-15T05:47:04.858Z,9.02
2024-02-15T05:52:06.904Z,8.30
2024-02-15T05:57:08.881Z,8.05
2024-02-15T06:02:10.684Z,6.80
2024-02-15T06:07:12.797Z,8.00
2024-02-15T06:12:14.640Z,7.80
2024-02-15T06:17:16.421Z,7.15
2024-02-15T06:22:18.329Z,7.60
2024-02-15T06:27:20.505Z,6.60
2024-02-15T06:32:40.879Z,7.00
2024-02-15T06:38:01.112Z,6.95
2024-02-15T06:43:04.277Z,6.78
2024-02-15T06:48:08.693Z,7.00
2024-02-15T06:53:11.045Z,6.50
2024-02-15T06:58:15.021Z,6.82
2024-02-15T07:03:18.061Z,6.40
2024-02-15T07:08:19.833Z,5.80
2024-02-15T07:13:21.563Z,5.82
2024-02-15T07:18:27.780Z,4.63
2024-02-15T07:23:31.294Z,4.78
2024-02-15T07:28:33.067Z,3.97
2024-02-15T07:33:36.557Z,4.30
2024-02-15T07:38:38.486Z,4.38
2024-02-15T07:43:41.843Z,3.50
2024-02-15T07:48:47.718Z,3.67
2024-02-15T07:53:50.591Z,3.53
2024-02-15T07:58:54.098Z,4.13
2024-02-15T08:03:56.763Z,3.67
2024-02-15T08:08:59.026Z,3.92
2024-02-15T08:14:00.938Z,3.00
2024-02-15T08:19:04.380Z,3.08
2024-02-15T08:24:09.974Z,2.30
2024-02-15T08:29:13.020Z,2.33
2024-02-15T08:34:15.856Z,2.22
2024-02-15T08:39:18.426Z,2.20
2024-02-15T08:44:22.659Z,1.90
2024-02-15T08:49:24.438Z,2.17
2024-02-15T08:54:27.950Z,1.70
2024-02-15T08:59:29.897Z,2.05
2024-02-15T09:04:31.761Z,1.90
2024-02-15T09:09:34.192Z,1.65
2024-02-15T09:14:40.029Z,2.20
2024-02-15T09:19:42.730Z,2.10
2024-02-15T09:24:44.653Z,1.85
2024-02-15T09:29:46.822Z,1.80
2024-02-15T09:34:48.697Z,1.58
2024-02-15T09:39:50.499Z,1.80
2024-02-15T09:44:52.646Z,2.20
2024-02-15T09:49:54.681Z,1.80
2024-02-15T09:54:56.729Z,1.45
2024-02-15T09:59:58.908Z,1.67
2024-02-15T10:05:00.832Z,1.58
2024-02-15T10:10:17.353Z,1.40
2024-02-15T10:15:36.999Z,1.35
2024-02-15T10:20:40.608Z,1.50
2024-02-15T10:25:42.771Z,1.48
2024-02-15T10:30:46.901Z,1.67
2024-02-15T10:35:49.280Z,1.48
2024-02-15T10:40:51.096Z,1.33
2024-02-15T10:45:53.787Z,1.27
2024-02-15T10:51:00.181Z,1.40
2024-02-15T10:56:20.978Z,1.02
2024-02-15T11:01:24.486Z,1.20
2024-02-15T11:06:31.419Z,1.35
2024-02-15T11:11:34.866Z,1.08
2024-02-15T11:16:47.009Z,1.40
2024-02-15T11:21:57.941Z,1.33
2024-02-15T11:27:09.646Z,1.08
2024-02-15T11:32:40.756Z,1.25
2024-02-15T11:37:54.579Z,1.30
2024-02-15T11:43:01.530Z,1.23
2024-02-15T11:48:04.472Z,1.42
2024-02-15T11:53:12.519Z,1.27
2024-02-15T11:58:29.961Z,1.30
2024-02-15T12:04:07.890Z,1.17
2024-02-15T12:09:29.391Z,1.30
2024-02-15T12:14:50.087Z,1.25
2024-02-15T12:19:56.774Z,1.80
2024-02-15T12:25:06.846Z,0.90
2024-02-15T12:30:21.489Z,1.10
2024-02-15T12:35:28.729Z,2.63
2024-02-15T12:40:35.524Z,1.08
2024-02-15T12:45:42.297Z,1.55
2024-02-15T12:50:44.737Z,1.15
2024-02-15T12:55:55.718Z,1.10
2024-02-15T13:01:00.018Z,1.00
2024-02-15T13:06:02.096Z,1.02
2024-02-15T13:11:05.282Z,0.90
2024-02-15T13:16:07.476Z,1.03
2024-02-15T13:21:11.469Z,1.00
2024-02-15T13:26:14.425Z,1.25
2024-02-15T13:31:16.736Z,1.00
2024-02-15T13:36:18.614Z,1.23
2024-02-15T13:41:20.676Z,0.98
2024-02-15T13:46:22.443Z,1.33
2024-02-15T13:51:25.397Z,1.05
2024-02-15T13:56:27.378Z,1.20
2024-02-15T14:01:29.513Z,1.02
2024-02-15T14:06:31.535Z,1.10
2024-02-15T14:11:33.907Z,0.90
2024-02-15T14:16:35.777Z,1.15
2024-02-15T14:21:39.697Z,0.88
2024-02-15T14:32:03.694Z,0.80
2024-02-15T14:37:07.244Z,1.05
2024-02-15T14:47:13.966Z,1.10
2024-02-15T14:52:15.860Z,0.82
2024-02-15T14:57:20.728Z,0.93
2024-02-15T15:02:23.427Z,1.08
2024-02-15T15:07:43.843Z,1.45
2024-02-15T15:12:46.797Z,1.10
2024-02-15T15:17:48.664Z,1.30
2024-02-15T15:22:50.707Z,1.40
2024-02-15T15:27:53.280Z,1.52
2024-02-15T15:32:55.147Z,1.38
2024-02-15T15:37:58.738Z,1.17
2024-02-15T15:43:01.383Z,1.20
2024-02-15T15:48:07.242Z,1.50
2024-02-15T15:53:12.069Z,1.20
2024-02-15T15:58:13.899Z,1.98
2024-02-15T16:03:16.483Z,1.35
2024-02-15T16:08:18.436Z,1.17
2024-02-15T16:13:21.213Z,1.20
2024-02-15T16:18:24.391Z,1.30
2024-02-15T16:23:26.428Z,1.10
2024-02-15T16:28:28.224Z,1.10
2024-02-15T16:33:30.149Z,1.20
2024-02-15T16:38:32.149Z,1.40
2024-02-15T16:43:33.889Z,1.10
2024-02-15T16:48:35.872Z,1.40
2024-02-15T16:53:39.492Z,1.75
2024-02-15T16:58:41.392Z,1.50
2024-02-15T17:03:44.070Z,1.27
2024-02-15T17:08:46.893Z,1.30
2024-02-15T17:13:49.951Z,1.40
2024-02-15T17:18:52.188Z,1.45
2024-02-15T17:23:54.088Z,1.45
2024-02-15T17:28:58.237Z,1.63
2024-02-15T17:34:00.177Z,1.90
2024-02-15T17:39:02.374Z,1.52
2024-02-15T17:44:04.437Z,1.75
2024-02-15T17:49:06.532Z,1.67
2024-02-15T17:54:08.545Z,1.50
2024-02-15T17:59:12.120Z,1.58
2024-02-15T18:04:14.090Z,1.60
2024-02-15T18:09:15.946Z,1.30
2024-02-15T18:14:17.889Z,1.33
2024-02-15T18:19:21.022Z,1.80
2024-02-15T18:24:23.143Z,1.50
2024-02-15T18:29:24.948Z,1.58
2024-02-15T18:34:26.812Z,1.73
2024-02-15T18:39:29.872Z,1.85
2024-02-15T18:44:32.016Z,1.60
2024-02-15T18:49:36.930Z,1.83
2024-02-15T18:54:43.560Z,1.60
2024-02-15T18:59:45.974Z,1.73
2024-02-15T19:04:47.929Z,1.60
2024-02-15T19:09:51.025Z,1.52
2024-02-15T19:14:53.050Z,2.00
2024-02-15T19:19:54.875Z,1.92
2024-02-15T19:24:56.949Z,1.58
2024-02-15T19:29:58.829Z,1.63
2024-02-15T19:35:01.853Z,1.98
2024-02-15T19:40:07.672Z,1.50
2024-02-15T19:45:10.898Z,2.00
2024-02-15T19:50:16.161Z,2.33
2024-02-15T19:55:18.355Z,1.90
2024-02-15T20:00:20.923Z,1.73
2024-02-15T20:05:24.783Z,2.00
2024-02-15T20:10:26.734Z,1.95
2024-02-15T20:15:30.079Z,1.75
2024-02-15T20:20:33.541Z,1.92
2024-02-15T20:25:35.359Z,2.13
2024-02-15T20:30:38.295Z,2.20
2024-02-15T20:35:40.132Z,1.90
2024-02-15T20:40:41.966Z,1.88
2024-02-15T20:45:44.956Z,1.88
2024-02-15T20:50:46.753Z,1.90
2024-02-15T20:55:48.572Z,1.77
2024-02-15T21:00:50.358Z,2.20
2024-02-15T21:05:52.853Z,1.92
2024-02-15T21:11:00.778Z,1.80
2024-02-15T21:16:04.675Z,1.90
2024-02-15T21:21:10.302Z,1.98
2024-02-15T21:26:12.956Z,1.65
2024-02-15T21:31:17.990Z,2.03
2024-02-15T21:36:20.274Z,1.92
2024-02-15T21:41:22.295Z,2.30
2024-02-15T21:46:24.157Z,2.17
2024-02-15T21:51:26.182Z,2.50
2024-02-15T21:56:28.326Z,2.15
2024-02-15T22:01:32.220Z,2.35
2024-02-15T22:06:34.216Z,2.60
2024-02-15T22:11:36.147Z,2.72
2024-02-15T22:16:38.822Z,2.60
2024-02-15T22:21:40.619Z,3.20
2024-02-15T22:26:42.419Z,2.70
2024-02-15T22:31:45.157Z,2.88
2024-02-15T22:36:46.907Z,2.83
2024-02-15T22:41:50.593Z,3.05
2024-02-15T22:46:54.619Z,3.40
2024-02-15T22:51:56.478Z,3.60
2024-02-15T22:56:58.633Z,3.75
2024-02-15T23:02:01.183Z,3.75
2024-02-15T23:07:05.076Z,3.85
2024-02-15T23:12:07.227Z,3.63
2024-02-15T23:17:09.143Z,3.97
2024-02-15T23:22:11.389Z,4.20
2024-02-15T23:27:13.406Z,3.47
2024-02-15T23:32:15.675Z,3.40
2024-02-15T23:37:36.086Z,3.80
2024-02-15T23:42:37.923Z,3.95
2024-02-15T23:47:39.713Z,3.80
2024-02-15T23:52:41.589Z,3.65
2024-02-15T23:57:44.721Z,3.90
